createdAt,value
2018-09-18T00:01:58.566Z,83.74
2018-09-18T00:04:27.981Z,83.95
2018-09-18T00:06:57.425Z,83.44
2018-09-18T00:09:26.794Z,82.78
2018-09-18T00:11:56.178Z,83.49
2018-09-18T00:14:25.550Z,83.32
2018-09-18T00:16:54.919Z,84.28
2018-09-18T00:19:24.322Z,84.30
2018-09-18T00:21:53.703Z,84.06
2018-09-18T00:24:23.130Z,83.87
2018-09-18T00:26:52.537Z,83.53
2018-09-18T00:29:21.901Z,83.72
2018-09-18T00:31:52.353Z,83.89
2018-09-18T00:34:21.704Z,83.76
2018-09-18T00:36:52.403Z,83.85
2018-09-18T00:39:21.779Z,83.55
2018-09-18T00:41:52.387Z,84.41
2018-09-18T00:44:21.774Z,84.26
2018-09-18T00:46:52.365Z,84.58
2018-09-18T00:49:21.750Z,84.85
2018-09-18T00:51:52.350Z,84.37
2018-09-18T00:54:21.731Z,84.80
2018-09-18T00:56:52.418Z,84.96
2018-09-18T00:59:21.806Z,85.29
2018-09-18T01:01:52.811Z,85.32
2018-09-18T01:04:22.179Z,85.51
2018-09-18T01:06:52.622Z,85.36
2018-09-18T01:09:21.997Z,85.32
2018-09-18T01:11:52.596Z,85.60
2018-09-18T01:14:21.982Z,85.24
2018-09-18T01:16:52.573Z,85.17
2018-09-18T01:19:21.978Z,85.15
2018-09-18T01:21:52.702Z,84.52
2018-09-18T01:24:22.079Z,84.63
2018-09-18T01:26:52.675Z,84.09
2018-09-18T01:29:22.048Z,85.49
2018-09-18T01:31:52.642Z,85.95
2018-09-18T01:34:22.034Z,85.93
2018-09-18T01:36:52.629Z,86.89
2018-09-18T01:39:22.014Z,86.45
2018-09-18T01:41:52.666Z,86.67
2018-09-18T01:44:22.051Z,87.21
2018-09-18T01:46:52.654Z,87.09
2018-09-18T01:49:22.040Z,86.81
2018-09-18T01:51:52.762Z,86.45
2018-09-18T01:54:22.453Z,87.01
2018-09-18T01:56:52.852Z,87.21
2018-09-18T01:59:22.300Z,87.08
2018-09-18T02:01:52.928Z,87.65
2018-09-18T02:04:22.304Z,86.90
2018-09-18T02:06:52.777Z,87.44
2018-09-18T02:09:22.178Z,87.45
2018-09-18T02:11:52.781Z,87.81
2018-09-18T02:14:22.174Z,88.03
2018-09-18T02:16:52.778Z,87.60
2018-09-18T02:19:22.299Z,87.37
2018-09-18T02:21:52.766Z,87.26
2018-09-18T02:24:22.155Z,87.67
2018-09-18T02:26:52.803Z,87.59
2018-09-18T02:29:22.185Z,87.47
2018-09-18T02:31:52.819Z,88.09
2018-09-18T02:34:22.185Z,87.69
2018-09-18T02:36:52.781Z,87.55
2018-09-18T02:39:22.157Z,87.94
2018-09-18T02:41:51.525Z,88.73
2018-09-18T02:44:20.898Z,88.64
2018-09-18T02:46:50.287Z,88.04
2018-09-18T02:49:19.670Z,88.10
2018-09-18T02:51:49.057Z,87.82
2018-09-18T02:54:18.439Z,87.88
2018-09-18T02:56:47.786Z,88.05
2018-09-18T02:59:17.163Z,87.56
2018-09-18T03:01:46.591Z,88.00
2018-09-18T03:04:15.991Z,87.93
2018-09-18T03:06:45.362Z,87.79
2018-09-18T03:09:14.729Z,88.19
2018-09-18T03:11:44.109Z,88.11
2018-09-18T03:14:13.504Z,88.11
2018-09-18T03:16:42.872Z,88.75
2018-09-18T03:19:12.245Z,88.98
2018-09-18T03:21:41.657Z,89.11
2018-09-18T03:24:11.029Z,88.86
2018-09-18T03:26:40.402Z,88.71
2018-09-18T03:29:09.768Z,88.51
2018-09-18T03:31:39.219Z,88.40
2018-09-18T03:34:08.582Z,88.30
2018-09-18T03:36:37.958Z,88.70
2018-09-18T03:39:08.077Z,88.40
2018-09-18T03:41:37.454Z,88.37
2018-09-18T03:44:06.813Z,88.11
2018-09-18T03:46:36.169Z,87.76
2018-09-18T03:49:05.554Z,87.36
2018-09-18T03:51:34.926Z,88.19
2018-09-18T03:54:04.337Z,88.63
2018-09-18T03:56:33.693Z,89.16
2018-09-18T03:59:03.104Z,88.77
2018-09-18T04:01:32.450Z,88.21
2018-09-18T04:04:01.815Z,88.25
2018-09-18T04:06:31.181Z,88.74
2018-09-18T04:09:00.537Z,88.67
2018-09-18T04:11:29.944Z,88.64
2018-09-18T04:13:59.310Z,88.73
2018-09-18T04:16:28.708Z,88.69
2018-09-18T04:18:58.077Z,89.19
2018-09-18T04:21:31.502Z,89.54
2018-09-18T04:24:00.883Z,89.10
2018-09-18T04:26:30.266Z,89.39
2018-09-18T04:28:59.622Z,89.27
2018-09-18T04:31:28.978Z,89.47
2018-09-18T04:33:58.361Z,89.76
2018-09-18T04:36:27.742Z,89.25
2018-09-18T04:38:57.088Z,89.79
2018-09-18T04:41:26.451Z,89.41
2018-09-18T04:43:55.846Z,89.70
2018-09-18T04:46:25.245Z,89.79
2018-09-18T04:48:54.621Z,89.87
2018-09-18T04:51:23.994Z,90.19
2018-09-18T04:53:53.341Z,89.97
2018-09-18T04:56:22.718Z,90.34
2018-09-18T04:58:52.098Z,89.61
2018-09-18T05:01:21.498Z,89.75
2018-09-18T05:03:50.851Z,89.82
2018-09-18T05:06:20.299Z,89.97
2018-09-18T05:08:49.662Z,89.07
2018-09-18T05:11:19.022Z,90.08
2018-09-18T05:13:48.417Z,90.69
2018-09-18T05:16:17.777Z,90.42
2018-09-18T05:18:47.134Z,91.14
2018-09-18T05:21:16.625Z,91.04
2018-09-18T05:23:46.123Z,89.92
2018-09-18T05:26:15.494Z,90.27
2018-09-18T05:28:44.854Z,90.09
2018-09-18T05:31:14.226Z,89.74
2018-09-18T05:33:43.666Z,90.57
2018-09-18T05:36:12.969Z,90.00
2018-09-18T05:38:43.266Z,89.65
2018-09-18T05:41:12.635Z,89.78
2018-09-18T05:43:42.082Z,89.48
2018-09-18T05:46:11.442Z,90.11
2018-09-18T05:48:40.814Z,90.21
2018-09-18T05:51:10.170Z,89.60
2018-09-18T05:53:39.535Z,88.85
2018-09-18T05:56:08.964Z,89.00
2018-09-18T05:58:38.358Z,88.48
2018-09-18T06:01:07.766Z,88.13
2018-09-18T06:03:37.139Z,88.53
2018-09-18T06:06:06.584Z,89.00
2018-09-18T06:08:35.969Z,88.37
2018-09-18T06:11:05.363Z,87.97
2018-09-18T06:13:34.718Z,88.47
2018-09-18T06:16:04.089Z,87.70
2018-09-18T06:18:33.479Z,87.50
2018-09-18T06:21:02.833Z,87.01
2018-09-18T06:23:32.291Z,86.09
2018-09-18T06:26:01.686Z,86.25
2018-09-18T06:28:31.086Z,85.63
2018-09-18T06:31:00.626Z,85.68
2018-09-18T06:33:30.045Z,85.72
2018-09-18T06:35:59.445Z,85.52
2018-09-18T06:38:28.830Z,84.98
2018-09-18T06:40:58.210Z,84.08
2018-09-18T06:43:27.578Z,84.14
2018-09-18T06:45:57.022Z,84.01
2018-09-18T06:48:26.390Z,83.15
2018-09-18T06:50:55.770Z,83.43
2018-09-18T06:53:25.134Z,83.18
2018-09-18T06:55:54.494Z,82.69
2018-09-18T06:58:24.121Z,81.91
2018-09-18T07:00:53.682Z,81.76
2018-09-18T07:03:23.317Z,81.06
2018-09-18T07:05:52.938Z,80.46
2018-09-18T07:08:22.516Z,79.88
2018-09-18T07:10:52.385Z,79.26
2018-09-18T07:13:22.007Z,78.88
2018-09-18T07:15:51.638Z,78.65
2018-09-18T07:18:21.018Z,78.67
2018-09-18T07:20:50.382Z,78.57
2018-09-18T07:23:19.746Z,78.32
2018-09-18T07:25:49.209Z,78.20
2018-09-18T07:28:18.653Z,77.82
2018-09-18T07:30:48.178Z,76.91
2018-09-18T07:33:17.574Z,76.53
2018-09-18T07:35:46.973Z,75.92
2018-09-18T07:38:16.514Z,75.87
2018-09-18T07:40:45.914Z,75.28
2018-09-18T07:43:15.290Z,75.55
2018-09-18T07:45:44.653Z,74.83
2018-09-18T07:48:14.843Z,74.96
2018-09-18T07:50:44.587Z,74.31
2018-09-18T07:53:14.189Z,74.42
2018-09-18T07:55:43.825Z,73.33
2018-09-18T07:58:13.456Z,73.69
2018-09-18T08:00:43.122Z,72.36
2018-09-18T08:03:12.806Z,71.65
2018-09-18T08:05:42.420Z,71.63
2018-09-18T08:08:12.065Z,71.03
2018-09-18T08:10:41.461Z,70.27
2018-09-18T08:13:10.795Z,69.34
2018-09-18T08:15:40.195Z,69.02
2018-09-18T08:18:09.566Z,68.17
2018-09-18T08:20:38.953Z,66.95
2018-09-18T08:23:08.343Z,66.09
2018-09-18T08:25:37.777Z,66.29
2018-09-18T08:28:07.137Z,64.15
2018-09-18T08:30:36.495Z,64.41
2018-09-18T08:33:06.007Z,63.88
2018-09-18T08:35:35.302Z,63.03
2018-09-18T08:38:04.904Z,61.83
2018-09-18T08:40:34.446Z,61.33
2018-09-18T08:43:04.125Z,59.62
2018-09-18T08:45:33.891Z,59.92
2018-09-18T08:48:03.566Z,59.58
2018-09-18T08:50:33.117Z,58.07
2018-09-18T08:53:02.722Z,57.37
2018-09-18T08:55:32.289Z,57.30
2018-09-18T08:58:01.859Z,56.66
2018-09-18T09:00:31.534Z,56.77
2018-09-18T09:03:01.094Z,56.27
2018-09-18T09:05:30.638Z,57.56
2018-09-18T09:08:00.364Z,54.90
2018-09-18T09:10:29.920Z,55.31
2018-09-18T09:12:59.453Z,55.12
2018-09-18T09:15:29.123Z,53.74
2018-09-18T09:17:58.783Z,54.64
2018-09-18T09:20:28.403Z,53.73
2018-09-18T09:22:58.115Z,53.52
2018-09-18T09:25:27.699Z,54.04
2018-09-18T09:27:57.393Z,54.05
2018-09-18T09:30:26.934Z,52.48
2018-09-18T09:32:56.541Z,51.97
2018-09-18T09:35:26.085Z,51.53
2018-09-18T09:37:55.572Z,52.05
2018-09-18T09:40:25.158Z,52.30
2018-09-18T09:42:54.706Z,51.00
2018-09-18T09:45:24.279Z,50.82
2018-09-18T09:47:53.638Z,50.95
2018-09-18T09:50:22.995Z,50.13
2018-09-18T09:52:52.375Z,49.65
2018-09-18T09:55:21.858Z,49.98
2018-09-18T09:57:51.258Z,49.43
2018-09-18T10:00:25.823Z,49.80
2018-09-18T10:02:55.250Z,48.57
2018-09-18T10:05:24.561Z,48.31
2018-09-18T10:07:53.942Z,48.47
2018-09-18T10:10:23.310Z,48.20
2018-09-18T10:12:52.682Z,48.64
2018-09-18T10:15:22.071Z,48.61
2018-09-18T10:17:51.507Z,48.55
2018-09-18T10:20:20.850Z,47.84
2018-09-18T10:22:50.213Z,47.86
2018-09-18T10:25:19.642Z,48.08
2018-09-18T10:27:49.031Z,47.37
2018-09-18T10:30:18.412Z,46.13
2018-09-18T10:32:47.904Z,46.36
2018-09-18T10:35:17.180Z,45.89
2018-09-18T10:37:46.531Z,46.82
2018-09-18T10:40:15.910Z,45.64
2018-09-18T10:42:45.290Z,46.22
2018-09-18T10:45:14.651Z,46.47
2018-09-18T10:47:44.040Z,46.28
2018-09-18T10:50:13.498Z,46.25
2018-09-18T10:52:42.873Z,45.44
2018-09-18T10:55:12.330Z,45.86
2018-09-18T10:57:42.659Z,44.60
2018-09-18T11:00:12.097Z,44.77
2018-09-18T11:02:41.493Z,45.60
2018-09-18T11:05:10.906Z,45.77
2018-09-18T11:07:40.334Z,44.81
2018-09-18T11:10:09.806Z,43.79
2018-09-18T11:12:39.114Z,43.89
2018-09-18T11:15:08.627Z,43.13
2018-09-18T11:17:38.030Z,44.07
2018-09-18T11:20:07.481Z,43.26
2018-09-18T11:22:36.851Z,42.53
2018-09-18T11:25:06.325Z,43.59
2018-09-18T11:27:35.803Z,42.19
2018-09-18T11:30:05.222Z,41.83
2018-09-18T11:32:34.653Z,42.41
2018-09-18T11:35:04.018Z,41.57
2018-09-18T11:37:33.411Z,41.98
2018-09-18T11:40:02.879Z,42.40
2018-09-18T11:42:32.238Z,41.38
2018-09-18T11:45:01.673Z,41.22
2018-09-18T11:47:31.092Z,41.37
2018-09-18T11:50:00.538Z,39.61
2018-09-18T11:52:29.894Z,41.21
2018-09-18T11:54:59.291Z,42.06
2018-09-18T11:57:28.655Z,41.15
2018-09-18T11:59:58.030Z,40.74
2018-09-18T12:02:27.410Z,40.03
2018-09-18T12:04:56.856Z,40.80
2018-09-18T12:07:26.198Z,38.84
2018-09-18T12:09:55.563Z,40.70
2018-09-18T12:12:24.947Z,38.92
2018-09-18T12:14:54.590Z,38.22
2018-09-18T12:17:23.945Z,38.38
2018-09-18T12:19:53.627Z,38.22
2018-09-18T12:22:23.038Z,37.91
2018-09-18T12:24:52.367Z,37.25
2018-09-18T12:27:21.746Z,38.09
2018-09-18T12:29:51.110Z,38.30
2018-09-18T12:32:20.542Z,36.22
2018-09-18T12:34:49.919Z,35.89
2018-09-18T12:37:19.282Z,34.80
2018-09-18T12:39:48.658Z,35.58
2018-09-18T12:42:18.070Z,35.45
2018-09-18T12:44:47.414Z,34.66
2018-09-18T12:47:16.818Z,36.19
2018-09-18T12:49:46.404Z,33.93
2018-09-18T12:52:15.590Z,34.34
2018-09-18T12:54:44.992Z,35.41
2018-09-18T12:57:14.495Z,33.82
2018-09-18T12:59:43.793Z,33.96
2018-09-18T13:02:13.145Z,34.66
2018-09-18T13:04:42.486Z,33.96
2018-09-18T13:07:11.862Z,34.38
2018-09-18T13:09:41.234Z,33.18
2018-09-18T13:12:10.604Z,33.82
2018-09-18T13:14:40.007Z,33.91
2018-09-18T13:17:09.360Z,33.63
2018-09-18T13:19:38.738Z,32.86
2018-09-18T13:22:08.157Z,32.92
2018-09-18T13:24:37.529Z,31.47
2018-09-18T13:27:06.906Z,32.40
2018-09-18T13:29:36.274Z,32.17
2018-09-18T13:32:05.658Z,30.63
2018-09-18T13:34:35.018Z,31.36
2018-09-18T13:37:04.814Z,31.62
2018-09-18T13:39:34.186Z,31.48
2018-09-18T13:42:03.575Z,31.87
2018-09-18T13:44:32.970Z,31.79
2018-09-18T13:47:02.346Z,31.88
2018-09-18T13:49:31.759Z,32.04
2018-09-18T13:52:01.292Z,31.09
2018-09-18T13:54:30.555Z,31.14
2018-09-18T13:57:00.019Z,30.99
2018-09-18T13:59:29.458Z,30.56
2018-09-18T14:01:58.819Z,30.58
2018-09-18T14:04:28.278Z,30.45
2018-09-18T14:06:57.562Z,30.63
2018-09-18T14:09:27.092Z,30.67
2018-09-18T14:11:56.434Z,30.92
2018-09-18T14:14:25.887Z,30.15
2018-09-18T14:16:55.264Z,30.08
2018-09-18T14:19:24.654Z,29.75
2018-09-18T14:21:55.254Z,30.16
2018-09-18T14:24:24.634Z,29.33
2018-09-18T14:26:55.224Z,30.65
2018-09-18T14:29:24.622Z,30.05
2018-09-18T14:31:55.246Z,29.93
2018-09-18T14:34:24.622Z,30.38
2018-09-18T14:36:55.254Z,30.55
2018-09-18T14:39:24.612Z,31.19
2018-09-18T14:41:54.095Z,31.15
2018-09-18T14:44:23.707Z,31.98
2018-09-18T14:46:53.091Z,30.82
2018-09-18T14:49:22.478Z,31.22
2018-09-18T14:51:51.866Z,30.78
2018-09-18T14:54:21.234Z,32.01
2018-09-18T14:56:50.618Z,31.54
2018-09-18T14:59:19.977Z,31.50
2018-09-18T15:01:49.351Z,30.69
2018-09-18T15:04:18.783Z,31.08
2018-09-18T15:06:48.214Z,30.41
2018-09-18T15:09:17.541Z,32.09
2018-09-18T15:11:46.917Z,32.46
2018-09-18T15:14:16.308Z,30.97
2018-09-18T15:16:45.716Z,30.94
2018-09-18T15:19:15.097Z,30.66
2018-09-18T15:21:44.502Z,31.10
2018-09-18T15:24:13.838Z,30.21
2018-09-18T15:26:43.197Z,31.09
2018-09-18T15:29:12.567Z,31.11
2018-09-18T15:31:41.970Z,30.99
2018-09-18T15:34:11.338Z,31.04
2018-09-18T15:36:40.717Z,30.89
2018-09-18T15:39:10.178Z,32.10
2018-09-18T15:41:39.574Z,32.25
2018-09-18T15:44:09.254Z,32.17
2018-09-18T15:46:38.886Z,32.13
2018-09-18T15:49:08.278Z,32.03
2018-09-18T15:51:37.811Z,31.53
2018-09-18T15:54:07.278Z,31.66
2018-09-18T15:56:36.902Z,32.43
2018-09-18T15:59:06.329Z,33.33
2018-09-18T16:01:35.781Z,33.70
2018-09-18T16:04:05.187Z,34.62
2018-09-18T16:06:34.570Z,33.34
2018-09-18T16:09:04.335Z,33.57
2018-09-18T16:11:33.800Z,34.08
2018-09-18T16:14:03.204Z,34.25
2018-09-18T16:16:32.607Z,36.36
2018-09-18T16:19:01.989Z,35.69
2018-09-18T16:21:31.398Z,36.55
2018-09-18T16:24:00.766Z,37.87
2018-09-18T16:26:30.141Z,39.08
2018-09-18T16:28:59.516Z,40.12
2018-09-18T16:31:28.926Z,40.72
2018-09-18T16:33:58.337Z,41.01
2018-09-18T16:36:28.850Z,41.91
2018-09-18T16:38:58.245Z,42.73
2018-09-18T16:41:27.631Z,43.29
2018-09-18T16:43:57.190Z,43.12
2018-09-18T16:46:26.563Z,43.54
2018-09-18T16:48:55.957Z,43.56
2018-09-18T16:51:25.319Z,44.21
2018-09-18T16:53:54.690Z,44.55
2018-09-18T16:56:24.069Z,44.75
2018-09-18T16:58:53.436Z,45.38
2018-09-18T17:01:22.819Z,44.42
2018-09-18T17:03:52.245Z,45.15
2018-09-18T17:06:21.642Z,44.81
2018-09-18T17:08:50.986Z,46.31
2018-09-18T17:11:20.418Z,45.80
2018-09-18T17:13:49.809Z,47.25
2018-09-18T17:16:19.233Z,46.99
2018-09-18T17:18:48.574Z,46.28
2018-09-18T17:21:17.963Z,48.01
2018-09-18T17:23:47.338Z,48.67
2018-09-18T17:26:16.703Z,48.49
2018-09-18T17:28:46.337Z,50.15
2018-09-18T17:31:15.547Z,49.59
2018-09-18T17:33:45.105Z,50.08
2018-09-18T17:36:14.522Z,56.52
2018-09-18T17:38:43.925Z,63.53
2018-09-18T17:41:13.307Z,72.27
2018-09-18T17:43:42.732Z,75.26
2018-09-18T17:46:12.150Z,77.66
2018-09-18T17:48:42.584Z,82.00
2018-09-18T17:51:12.195Z,84.48
2018-09-18T17:53:41.706Z,81.37
2018-09-18T17:56:11.231Z,81.15
2018-09-18T17:58:40.738Z,84.60
2018-09-18T18:01:10.130Z,85.64
2018-09-18T18:03:39.550Z,89.21
2018-09-18T18:06:08.938Z,91.44
2018-09-18T18:08:38.591Z,93.10
2018-09-18T18:11:09.888Z,93.83
2018-09-18T18:13:41.404Z,93.81
2018-09-18T18:16:13.885Z,94.66
2018-09-18T18:18:47.035Z,95.43
2018-09-18T18:21:19.696Z,94.77
2018-09-18T18:23:52.932Z,96.63
2018-09-18T18:26:25.634Z,95.64
2018-09-18T18:28:58.860Z,94.83
2018-09-18T18:31:31.918Z,96.07
2018-09-18T18:34:05.097Z,94.98
2018-09-18T18:36:38.142Z,94.85
2018-09-18T18:39:11.955Z,96.04
2018-09-18T18:41:45.097Z,95.99
2018-09-18T18:44:18.661Z,95.90
2018-09-18T18:46:52.121Z,97.12
2018-09-18T18:49:25.340Z,96.21
2018-09-18T18:51:59.147Z,95.51
2018-09-18T18:54:32.274Z,96.39
2018-09-18T18:57:04.594Z,96.71
2018-09-18T18:59:37.590Z,97.16
2018-09-18T19:02:12.379Z,96.47
2018-09-18T19:04:45.516Z,96.52
2018-09-18T19:07:18.636Z,98.28
2018-09-18T19:09:51.940Z,97.44
2018-09-18T19:12:25.112Z,98.08
2018-09-18T19:14:58.036Z,97.56
2018-09-18T19:17:31.590Z,97.10
2018-09-18T19:20:04.855Z,97.82
2018-09-18T19:22:37.929Z,97.53
2018-09-18T19:25:11.486Z,97.38
2018-09-18T19:27:44.655Z,97.21
2018-09-18T19:30:17.455Z,97.04
2018-09-18T19:32:50.294Z,96.77
2018-09-18T19:35:23.388Z,97.42
2018-09-18T19:37:56.403Z,97.70
2018-09-18T19:40:29.286Z,98.39
2018-09-18T19:43:02.521Z,98.41
2018-09-18T19:45:35.591Z,97.26
2018-09-18T19:48:08.769Z,97.29
2018-09-18T19:50:42.124Z,96.23
2018-09-18T19:53:15.436Z,95.83
2018-09-18T19:55:49.165Z,95.95
2018-09-18T19:58:21.983Z,95.51
2018-09-18T20:00:54.630Z,96.69
2018-09-18T20:03:28.500Z,96.21
2018-09-18T20:06:01.577Z,95.77
2018-09-18T20:08:35.094Z,95.77
2018-09-18T20:11:08.711Z,95.46
2018-09-18T20:13:41.513Z,94.37
2018-09-18T20:16:15.431Z,94.50
2018-09-18T20:18:48.507Z,94.27
2018-09-18T20:21:21.275Z,95.09
2018-09-18T20:23:54.363Z,94.64
2018-09-18T20:26:27.571Z,94.87
2018-09-18T20:29:01.646Z,94.39
2018-09-18T20:31:34.693Z,95.20
2018-09-18T20:34:08.012Z,95.40
2018-09-18T20:36:40.948Z,95.39
2018-09-18T20:39:13.884Z,94.88
2018-09-18T20:41:46.957Z,96.43
2018-09-18T20:44:20.591Z,96.59
2018-09-18T20:46:53.496Z,96.67
2018-09-18T20:49:26.409Z,96.79
2018-09-18T20:52:00.032Z,96.79
2018-09-18T20:54:32.517Z,96.49
2018-09-18T20:57:02.678Z,95.82
2018-09-18T20:59:32.635Z,95.86
2018-09-18T21:02:02.150Z,95.37
2018-09-18T21:04:31.513Z,95.60
2018-09-18T21:07:00.906Z,95.71
2018-09-18T21:09:30.306Z,95.12
2018-09-18T21:11:59.754Z,94.82
2018-09-18T21:14:29.137Z,95.04
2018-09-18T21:16:58.536Z,95.74
2018-09-18T21:19:28.003Z,95.74
2018-09-18T21:21:57.433Z,95.18
2018-09-18T21:24:26.978Z,95.20
2018-09-18T21:26:56.451Z,96.24
2018-09-18T21:29:25.860Z,95.99
2018-09-18T21:31:56.354Z,95.47
2018-09-18T21:34:25.762Z,95.99
2018-09-18T21:36:56.358Z,95.73
2018-09-18T21:39:25.744Z,95.80
2018-09-18T21:41:56.357Z,96.86
2018-09-18T21:44:25.758Z,98.21
2018-09-18T21:46:56.365Z,98.08
2018-09-18T21:49:25.803Z,97.91
2018-09-18T21:51:56.413Z,97.18
2018-09-18T21:54:25.795Z,97.88
2018-09-18T21:56:56.412Z,97.32
2018-09-18T21:59:25.778Z,98.09
2018-09-18T22:01:55.172Z,97.91
2018-09-18T22:04:24.569Z,97.40
2018-09-18T22:06:53.983Z,97.59
2018-09-18T22:09:23.327Z,96.84
2018-09-18T22:11:52.739Z,97.07
2018-09-18T22:14:22.242Z,98.65
2018-09-18T22:16:51.610Z,97.44
2018-09-18T22:19:21.042Z,97.54
2018-09-18T22:21:50.591Z,97.01
2018-09-18T22:24:20.117Z,97.06
2018-09-18T22:26:49.626Z,96.89
2018-09-18T22:29:19.042Z,96.58
2018-09-18T22:31:48.439Z,97.37
2018-09-18T22:34:17.943Z,96.68
2018-09-18T22:36:47.316Z,96.67
2018-09-18T22:39:16.708Z,96.68
2018-09-18T22:41:46.116Z,96.96
2018-09-18T22:44:15.490Z,96.10
2018-09-18T22:46:44.991Z,96.87
2018-09-18T22:49:14.384Z,96.65
2018-09-18T22:51:43.864Z,95.34
2018-09-18T22:54:13.309Z,95.75
2018-09-18T22:56:42.750Z,96.07
2018-09-18T22:59:12.123Z,96.06
2018-09-18T23:01:41.488Z,96.48
2018-09-18T23:04:10.873Z,96.81
2018-09-18T23:06:40.235Z,97.31
2018-09-18T23:09:10.201Z,96.58
2018-09-18T23:11:39.562Z,96.73
2018-09-18T23:14:08.989Z,97.13
2018-09-18T23:16:38.356Z,96.59
2018-09-18T23:19:07.763Z,95.36
2018-09-18T23:21:37.174Z,95.07
2018-09-18T23:24:07.094Z,94.84
2018-09-18T23:26:36.713Z,94.94
2018-09-18T23:29:06.151Z,95.30
2018-09-18T23:31:35.825Z,95.36
2018-09-18T23:34:05.214Z,94.65
2018-09-18T23:36:34.593Z,94.65
2018-09-18T23:39:05.379Z,94.44
2018-09-18T23:41:34.770Z,94.46
2018-09-18T23:44:04.146Z,94.41
2018-09-18T23:46:33.555Z,94.47
2018-09-18T23:49:02.949Z,93.93
2018-09-18T23:51:32.327Z,93.48
2018-09-18T23:54:01.721Z,93.30
2018-09-18T23:56:31.090Z,94.20
2018-09-18T23:59:00.498Z,93.59
